Map

Track Data

SID SEASON NUMBER BASIN SUBBASIN NAME ISO_TIME NATURE LAT LON WMO_WIND WMO_PRES WMO_AGENCY TRACK_TYPE DIST2LAND LANDFALL IFLAG USA_AGENCY USA_ATCF_ID USA_LAT USA_LON USA_RECORD USA_STATUS USA_WIND USA_PRES USA_SSHS USA_R34_NE USA_R34_SE USA_R34_SW USA_R34_NW USA_R50_NE USA_R50_SE USA_R50_SW USA_R50_NW USA_R64_NE USA_R64_SE USA_R64_SW USA_R64_NW USA_POCI USA_ROCI USA_RMW USA_EYE TOKYO_LAT TOKYO_LON TOKYO_GRADE TOKYO_WIND TOKYO_PRES TOKYO_R50_DIR TOKYO_R50_LONG TOKYO_R50_SHORT TOKYO_R30_DIR TOKYO_R30_LONG TOKYO_R30_SHORT TOKYO_LAND CMA_LAT CMA_LON CMA_CAT CMA_WIND CMA_PRES HKO_LAT HKO_LON HKO_CAT HKO_WIND HKO_PRES NEWDELHI_LAT NEWDELHI_LON NEWDELHI_GRADE NEWDELHI_WIND NEWDELHI_PRES NEWDELHI_CI NEWDELHI_DP NEWDELHI_POCI REUNION_LAT REUNION_LON REUNION_TYPE REUNION_WIND REUNION_PRES REUNION_TNUM REUNION_CI REUNION_RMW REUNION_R34_NE REUNION_R34_SE REUNION_R34_SW REUNION_R34_NW REUNION_R50_NE REUNION_R50_SE REUNION_R50_SW REUNION_R50_NW REUNION_R64_NE REUNION_R64_SE REUNION_R64_SW REUNION_R64_NW BOM_LAT BOM_LON BOM_TYPE BOM_WIND BOM_PRES BOM_TNUM BOM_CI BOM_RMW BOM_R34_NE BOM_R34_SE BOM_R34_SW BOM_R34_NW BOM_R50_NE BOM_R50_SE BOM_R50_SW BOM_R50_NW BOM_R64_NE BOM_R64_SE BOM_R64_SW BOM_R64_NW BOM_ROCI BOM_POCI BOM_EYE BOM_POS_METHOD BOM_PRES_METHOD NADI_LAT NADI_LON NADI_CAT NADI_WIND NADI_PRES WELLINGTON_LAT WELLINGTON_LON WELLINGTON_WIND WELLINGTON_PRES DS824_LAT DS824_LON DS824_STAGE DS824_WIND DS824_PRES TD9636_LAT TD9636_LON TD9636_STAGE TD9636_WIND TD9636_PRES TD9635_LAT TD9635_LON TD9635_WIND TD9635_PRES TD9635_ROCI NEUMANN_LAT NEUMANN_LON NEUMANN_CLASS NEUMANN_WIND NEUMANN_PRES MLC_LAT MLC_LON MLC_CLASS MLC_WIND MLC_PRES USA_GUST BOM_GUST BOM_GUST_PER REUNION_GUST REUNION_GUST_PER USA_SEAHGT USA_SEARAD_NE USA_SEARAD_SE USA_SEARAD_SW USA_SEARAD_NW STORM_SPEED STORM_DIR
1983228N27270 1983 47 NA GM ALICIA 1983-08-15 12:00:00 TS 27.3000 -90.5000 30 1009 hurdat_atl main 201 200 O_____________ hurdat_atl AL031983 27.3000 -90.5000 TD 30 1009 -1 5 258
1983228N27270 1983 47 NA GM ALICIA 1983-08-15 15:00:00 TS 27.2501 -90.7501 main 201 201 P_____________ AL031983 27.2501 -90.7501 TD 35 1007 0 5 257
1983228N27270 1983 47 NA GM ALICIA 1983-08-15 18:00:00 TS 27.2000 -91.0000 40 1006 hurdat_atl main 212 212 O_____________ hurdat_atl AL031983 27.2000 -91.0000 TS 40 1006 0 5 257
1983228N27270 1983 47 NA GM ALICIA 1983-08-15 21:00:00 TS 27.1500 -91.2500 main 225 225 P_____________ AL031983 27.1500 -91.2500 TS 42 1005 0 5 257
1983228N27270 1983 47 NA GM ALICIA 1983-08-16 00:00:00 TS 27.1000 -91.5000 45 1005 hurdat_atl main 230 230 O_____________ hurdat_atl AL031983 27.1000 -91.5000 TS 45 1005 0 5 256
1983228N27270 1983 47 NA GM ALICIA 1983-08-16 03:00:00 TS 27.0350 -91.7576 main 250 250 P_____________ AL031983 27.0350 -91.7576 TS 47 1004 0 5 257
1983228N27270 1983 47 NA GM ALICIA 1983-08-16 06:00:00 TS 27.0000 -92.0000 50 1004 hurdat_atl main 258 258 O_____________ hurdat_atl AL031983 27.0000 -92.0000 TS 50 1004 0 4 269
1983228N27270 1983 47 NA GM ALICIA 1983-08-16 09:00:00 TS 27.0274 -92.2075 main 266 262 P_____________ AL031983 27.0274 -92.2075 TS 52 1003 0 4 286
1983228N27270 1983 47 NA GM ALICIA 1983-08-16 12:00:00 TS 27.1000 -92.4000 55 1002 hurdat_atl main 266 257 O_____________ hurdat_atl AL031983 27.1000 -92.4000 TS 55 1002 0 4 297
1983228N27270 1983 47 NA GM ALICIA 1983-08-16 15:00:00 TS 27.1999 -92.5925 main 258 248 P_____________ AL031983 27.1999 -92.5925 TS 57 1000 0 4 299
1983228N27270 1983 47 NA GM ALICIA 1983-08-16 18:00:00 TS 27.3000 -92.8000 60 998 hurdat_atl main 250 250 O_____________ hurdat_atl AL031983 27.3000 -92.8000 TS 60 998 0 4 289
1983228N27270 1983 47 NA GM ALICIA 1983-08-16 21:00:00 TS 27.3425 -93.0501 main 257 247 P_____________ AL031983 27.3425 -93.0501 TS 62 994 0 5 283
1983228N27270 1983 47 NA GM ALICIA 1983-08-17 00:00:00 TS 27.4000 -93.3000 65 991 hurdat_atl main 253 236 O_____________ hurdat_atl AL031983 27.4000 -93.3000 HU 65 991 1 4 297
1983228N27270 1983 47 NA GM ALICIA 1983-08-17 03:00:00 TS 27.5424 -93.5000 main 236 206 P_____________ AL031983 27.5424 -93.5000 HU 67 989 1 5 310
1983228N27270 1983 47 NA GM ALICIA 1983-08-17 06:00:00 TS 27.7000 -93.7000 70 987 hurdat_atl main 206 184 O_____________ hurdat_atl AL031983 27.7000 -93.7000 HU 70 987 1 5 303
1983228N27270 1983 47 NA GM ALICIA 1983-08-17 09:00:00 TS 27.8076 -93.9575 main 178 156 P_____________ AL031983 27.8076 -93.9575 HU 72 985 1 5 294
1983228N27270 1983 47 NA GM ALICIA 1983-08-17 12:00:00 TS 27.9000 -94.2000 75 983 hurdat_atl main 156 136 O_____________ hurdat_atl AL031983 27.9000 -94.2000 HU 75 983 1 4 297
1983228N27270 1983 47 NA GM ALICIA 1983-08-17 15:00:00 TS 27.9924 -94.3651 main 136 121 P_____________ AL031983 27.9924 -94.3651 HU 82 978 1 3 307
1983228N27270 1983 47 NA GM ALICIA 1983-08-17 18:00:00 TS 28.1000 -94.5000 90 974 hurdat_atl main 121 106 O_____________ hurdat_atl AL031983 28.1000 -94.5000 HU 90 974 2 3 312
1983228N27270 1983 47 NA GM ALICIA 1983-08-17 21:00:00 TS 28.2275 -94.6575 main 101 77 P_____________ AL031983 28.2275 -94.6575 HU 92 971 2 4 319
1983228N27270 1983 47 NA GM ALICIA 1983-08-18 00:00:00 TS 28.4000 -94.8000 95 969 hurdat_atl main 77 68 O_____________ hurdat_atl AL031983 28.4000 -94.8000 HU 95 969 2 4 331
1983228N27270 1983 47 NA GM ALICIA 1983-08-18 03:00:00 TS 28.5434 -94.8524 main 62 22 P_____________ AL031983 28.5434 -94.8524 HU 97 966 3 5 340
1983228N27270 1983 47 NA GM ALICIA 1983-08-18 06:00:00 TS 28.9000 -95.0000 100 963 hurdat_atl main 22 9 O_____________ hurdat_atl AL031983 28.9000 -95.0000 HU 100 963 3 9 339
1983228N27270 1983 47 NA GM ALICIA 1983-08-18 07:00:00 TS 29.1000 -95.1000 100 962 hurdat_atl main 9 0 O_____________ hurdat_atl AL031983 29.1000 -95.1000 L HU 100 962 3 11 334
1983228N27270 1983 47 NA NA ALICIA 1983-08-18 09:00:00 TS 29.3936 -95.2737 main 0 0 P_____________ AL031983 29.3936 -95.2737 HU 91 963 2 8 330
1983228N27270 1983 47 NA NA ALICIA 1983-08-18 12:00:00 TS 29.7000 -95.5000 80 965 hurdat_atl main 0 0 O_____________ hurdat_atl AL031983 29.7000 -95.5000 HU 80 965 1 8 330
1983228N27270 1983 47 NA NA ALICIA 1983-08-18 15:00:00 TS 30.0787 -95.7342 main 0 0 P_____________ AL031983 30.0787 -95.7342 HU 60 977 0 9 332
1983228N27270 1983 47 NA NA ALICIA 1983-08-18 18:00:00 TS 30.5000 -96.0000 40 990 hurdat_atl main 0 0 O_____________ hurdat_atl AL031983 30.5000 -96.0000 TS 40 990 0 11 330
1983228N27270 1983 47 NA NA ALICIA 1983-08-18 21:00:00 TS 30.9925 -96.3349 main 0 0 P_____________ AL031983 30.9925 -96.3349 TS 37 994 0 12 329
1983228N27270 1983 47 NA NA ALICIA 1983-08-19 00:00:00 TS 31.5000 -96.7000 35 998 hurdat_atl main 0 0 O_____________ hurdat_atl AL031983 31.5000 -96.7000 TS 35 998 0 11 327
1983228N27270 1983 47 NA NA ALICIA 1983-08-19 03:00:00 TS 31.9575 -97.0578 main 0 0 P_____________ AL031983 31.9575 -97.0578 TS 32 1000 -1 11 327
1983228N27270 1983 47 NA NA ALICIA 1983-08-19 06:00:00 TS 32.4000 -97.4000 30 1003 hurdat_atl main 0 0 O_____________ hurdat_atl AL031983 32.4000 -97.4000 TD 30 1003 -1 10 328
1983228N27270 1983 47 NA NA ALICIA 1983-08-19 09:00:00 TS 32.8349 -97.7154 main 0 0 P_____________ AL031983 32.8349 -97.7154 TD 27 1004 -1 10 331
1983228N27270 1983 47 NA NA ALICIA 1983-08-19 12:00:00 TS 33.3000 -98.0000 25 1006 hurdat_atl main 0 0 O_____________ hurdat_atl AL031983 33.3000 -98.0000 TD 25 1006 -1 11 336
1983228N27270 1983 47 NA NA ALICIA 1983-08-19 15:00:00 TS 33.8424 -98.2578 main 0 0 P_____________ AL031983 33.8424 -98.2578 TD 25 1007 -1 12 339
1983228N27270 1983 47 NA NA ALICIA 1983-08-19 18:00:00 TS 34.4000 -98.5000 25 1009 hurdat_atl main 0 0 O_____________ hurdat_atl AL031983 34.4000 -98.5000 TD 25 1009 -1 11 339
1983228N27270 1983 47 NA NA ALICIA 1983-08-19 21:00:00 TS 34.9000 -98.7578 main 0 0 P_____________ AL031983 34.9000 -98.7578 TD 22 1009 -1 11 338
1983228N27270 1983 47 NA NA ALICIA 1983-08-20 00:00:00 TS 35.4000 -99.0000 20 1010 hurdat_atl main 0 0 O_____________ hurdat_atl AL031983 35.4000 -99.0000 TD 20 1010 -1 11 339
1983228N27270 1983 47 NA NA ALICIA 1983-08-20 03:00:00 TS 35.9425 -99.2519 main 0 0 P_____________ AL031983 35.9425 -99.2519 TD 20 1010 -1 11 344
1983228N27270 1983 47 NA NA ALICIA 1983-08-20 06:00:00 ET 36.5000 -99.4000 20 1011 hurdat_atl main 0 0 O_____________ hurdat_atl AL031983 36.5000 -99.4000 EX 20 1011 -4 11 356
1983228N27270 1983 47 NA NA ALICIA 1983-08-20 09:00:00 ET 37.0350 -99.3457 main 0 0 P_____________ AL031983 37.0350 -99.3457 EX 20 1011 -4 11 8
1983228N27270 1983 47 NA NA ALICIA 1983-08-20 12:00:00 ET 37.6000 -99.2000 20 1011 hurdat_atl main 0 0 O_____________ hurdat_atl AL031983 37.6000 -99.2000 EX 20 1011 -4 12 7
1983228N27270 1983 47 NA NA ALICIA 1983-08-20 15:00:00 ET 38.2496 -99.1585 main 0 0 P_____________ AL031983 38.2496 -99.1585 EX 20 1011 -4 13 7
1983228N27270 1983 47 NA NA ALICIA 1983-08-20 18:00:00 ET 38.9000 -99.0000 20 1011 hurdat_atl main 0 0 O_____________ hurdat_atl AL031983 38.9000 -99.0000 EX 20 1011 -4 13 21
1983228N27270 1983 47 NA NA ALICIA 1983-08-20 21:00:00 ET 39.4578 -98.5603 main 0 0 P_____________ AL031983 39.4578 -98.5603 EX 20 1010 -4 13 35
1983228N27270 1983 47 NA NA ALICIA 1983-08-21 00:00:00 ET 40.0000 -98.0000 20 1010 hurdat_atl main 0 0 O_____________ hurdat_atl AL031983 40.0000 -98.0000 EX 20 1010 -4 14 36
1983228N27270 1983 47 NA NA ALICIA 1983-08-21 03:00:00 ET 40.5851 -97.4813 main 0 0 P_____________ AL031983 40.5851 -97.4813 EX 20 1010 -4 14 32
1983228N27270 1983 47 NA NA ALICIA 1983-08-21 06:00:00 ET 41.2000 -97.0000 20 1010 hurdat_atl main 0 O_____________ hurdat_atl AL031983 41.2000 -97.0000 EX 20 1010 -4 14 31

About IBTrACS Database

This database is a web-friendly format of International Best Track Archive for Climate Stewardship (IBTrACS), a global best track data archive curated by NOAA dating back to 1842.

Updated: 2021-12-03